createdAt,value
2023-04-07T00:01:46.993Z,10.47
2023-04-07T00:04:15.173Z,11.13
2023-04-07T00:06:43.588Z,9.27
2023-04-07T00:09:11.881Z,8.87
2023-04-07T00:11:41.474Z,9.67
2023-04-07T00:14:09.756Z,8.80
2023-04-07T00:16:37.891Z,9.13
2023-04-07T00:19:05.955Z,9.43
2023-04-07T00:21:34.292Z,9.07
2023-04-07T00:24:02.610Z,8.90
2023-04-07T00:26:32.634Z,8.53
2023-04-07T00:29:02.133Z,8.73
2023-04-07T00:31:30.284Z,8.70
2023-04-07T00:33:58.729Z,8.93
2023-04-07T00:36:28.690Z,8.40
2023-04-07T00:38:56.763Z,8.57
2023-04-07T00:41:24.880Z,9.10
2023-04-07T00:43:53.351Z,8.33
2023-04-07T00:46:24.351Z,9.03
2023-04-07T00:48:52.480Z,8.97
2023-04-07T00:51:22.308Z,8.93
2023-04-07T00:53:50.699Z,8.40
2023-04-07T00:56:18.757Z,9.50
2023-04-07T00:58:46.873Z,9.73
2023-04-07T01:01:20.117Z,7.57
2023-04-07T01:03:56.994Z,9.30
2023-04-07T01:06:30.321Z,9.10
2023-04-07T01:09:03.732Z,8.70
2023-04-07T01:11:38.539Z,8.17
2023-04-07T01:14:07.947Z,9.37
2023-04-07T01:16:44.729Z,7.90
2023-04-07T01:19:26.087Z,7.63
2023-04-07T01:22:00.026Z,8.30
2023-04-07T01:25:07.406Z,8.30
2023-04-07T01:27:43.721Z,8.00
2023-04-07T01:30:14.327Z,9.00
2023-04-07T01:32:46.814Z,8.80
2023-04-07T01:35:15.957Z,9.00
2023-04-07T01:37:46.466Z,9.20
2023-04-07T01:40:16.508Z,8.30
2023-04-07T01:42:46.995Z,8.60
2023-04-07T01:45:18.335Z,8.27
2023-04-07T01:47:47.509Z,9.13
2023-04-07T01:50:16.204Z,7.60
2023-04-07T01:52:44.371Z,8.20
2023-04-07T01:55:12.559Z,8.47
2023-04-07T01:57:48.869Z,8.10
2023-04-07T02:00:21.723Z,8.40
2023-04-07T02:02:59.609Z,8.00
2023-04-07T02:05:30.962Z,8.00
2023-04-07T02:08:04.834Z,9.30
2023-04-07T02:10:37.330Z,7.90
2023-04-07T02:13:08.999Z,7.60
2023-04-07T02:15:40.209Z,8.77
2023-04-07T02:18:12.821Z,8.57
2023-04-07T02:20:42.240Z,8.50
2023-04-07T02:23:13.523Z,8.20
2023-04-07T02:25:42.615Z,8.20
2023-04-07T02:28:10.723Z,9.30
2023-04-07T02:30:40.796Z,7.93
2023-04-07T02:33:08.959Z,8.53
2023-04-07T02:35:37.066Z,8.40
2023-04-07T02:38:05.132Z,8.23
2023-04-07T02:40:37.462Z,8.10
2023-04-07T02:43:05.643Z,7.97
2023-04-07T02:45:33.832Z,8.90
2023-04-07T02:48:03.244Z,8.27
2023-04-07T02:50:31.353Z,8.30
2023-04-07T02:52:59.404Z,8.53
2023-04-07T02:55:27.553Z,8.03
2023-04-07T02:57:55.658Z,8.53
2023-04-07T03:00:35.945Z,7.97
2023-04-07T03:03:11.549Z,8.33
2023-04-07T03:05:42.854Z,8.70
2023-04-07T03:08:13.060Z,8.37
2023-04-07T03:10:41.990Z,9.20
2023-04-07T03:13:12.735Z,9.20
2023-04-07T03:15:41.356Z,8.43
2023-04-07T03:18:11.319Z,8.63
2023-04-07T03:20:41.913Z,7.80
2023-04-07T03:23:13.001Z,8.70
2023-04-07T03:25:41.693Z,8.40
2023-04-07T03:28:12.415Z,7.40
2023-04-07T03:30:41.461Z,7.90
2023-04-07T03:33:11.497Z,7.10
2023-04-07T03:35:39.624Z,7.83
2023-04-07T03:38:07.859Z,6.90
2023-04-07T03:40:37.755Z,6.57
2023-04-07T03:43:05.941Z,6.80
2023-04-07T03:45:34.956Z,7.37
2023-04-07T03:48:03.232Z,7.30
2023-04-07T03:50:33.494Z,7.20
2023-04-07T03:53:14.512Z,6.20
2023-04-07T03:55:42.877Z,6.50
2023-04-07T03:58:20.057Z,6.43
2023-04-07T04:00:49.731Z,6.30
2023-04-07T04:03:18.257Z,6.33
2023-04-07T04:06:06.300Z,5.60
2023-04-07T04:08:34.584Z,6.63
2023-04-07T04:11:02.789Z,6.17
2023-04-07T04:13:36.960Z,6.40
2023-04-07T04:16:07.703Z,7.33
2023-04-07T04:18:38.430Z,7.13
2023-04-07T04:21:09.271Z,6.50
2023-04-07T04:23:38.794Z,7.30
2023-04-07T04:26:06.929Z,7.57
2023-04-07T04:28:35.740Z,7.47
2023-04-07T04:31:06.057Z,7.43
2023-04-07T04:33:40.457Z,6.67
2023-04-07T04:36:10.462Z,7.43
2023-04-07T04:38:38.593Z,7.37
2023-04-07T04:41:14.842Z,8.30
2023-04-07T04:43:43.886Z,7.37
2023-04-07T04:46:15.838Z,6.77
2023-04-07T04:48:44.781Z,7.00
2023-04-07T04:51:14.132Z,8.20
2023-04-07T04:53:43.275Z,6.53
2023-04-07T04:56:11.283Z,7.13
2023-04-07T04:58:46.981Z,7.37
2023-04-07T05:01:39.989Z,7.07
2023-04-07T05:04:11.469Z,7.77
2023-04-07T05:06:46.745Z,6.97
2023-04-07T05:09:17.518Z,6.83
2023-04-07T05:11:47.589Z,7.17
2023-04-07T05:14:16.534Z,8.30
2023-04-07T05:16:51.455Z,7.77
2023-04-07T05:19:23.664Z,7.47
2023-04-07T05:21:56.486Z,8.00
2023-04-07T05:24:28.237Z,7.53
2023-04-07T05:26:59.859Z,7.10
2023-04-07T05:29:28.053Z,7.40
2023-04-07T05:31:56.939Z,7.23
2023-04-07T05:34:25.694Z,7.17
2023-04-07T05:36:57.460Z,7.60
2023-04-07T05:39:25.963Z,7.73
2023-04-07T05:41:57.618Z,7.03
2023-04-07T05:44:27.933Z,7.50
2023-04-07T05:46:57.001Z,7.53
2023-04-07T05:49:26.823Z,8.03
2023-04-07T05:52:06.000Z,8.10
2023-04-07T05:54:39.387Z,8.20
2023-04-07T05:57:08.023Z,8.07
2023-04-07T05:59:37.860Z,7.87
2023-04-07T06:02:06.447Z,8.30
2023-04-07T06:04:35.428Z,7.97
2023-04-07T06:07:06.932Z,8.70
2023-04-07T06:09:34.968Z,8.07
2023-04-07T06:12:05.036Z,8.10
2023-04-07T06:14:33.755Z,7.83
2023-04-07T06:17:02.443Z,8.00
2023-04-07T06:19:30.651Z,7.80
2023-04-07T06:21:58.705Z,7.70
2023-04-07T06:24:28.139Z,7.67
2023-04-07T06:26:58.292Z,8.27
2023-04-07T06:29:26.452Z,7.70
2023-04-07T06:31:55.115Z,7.40
2023-04-07T06:34:23.420Z,7.17
2023-04-07T06:36:51.601Z,8.30
2023-04-07T06:39:20.103Z,7.73
2023-04-07T06:41:49.513Z,7.73
2023-04-07T06:44:17.718Z,7.17
2023-04-07T06:46:47.505Z,7.00
2023-04-07T06:49:16.378Z,8.60
2023-04-07T06:51:44.443Z,6.93
2023-04-07T06:54:13.921Z,6.77
2023-04-07T06:56:42.395Z,7.80
2023-04-07T06:59:12.045Z,8.20
2023-04-07T07:01:40.473Z,7.80
2023-04-07T07:04:08.673Z,7.20
2023-04-07T07:06:36.838Z,7.50
2023-04-07T07:09:05.076Z,7.50
2023-04-07T07:11:33.128Z,8.53
2023-04-07T07:14:01.212Z,8.77
2023-04-07T07:16:30.743Z,8.80
2023-04-07T07:18:58.826Z,8.13
2023-04-07T07:21:27.812Z,7.93
2023-04-07T07:23:56.164Z,7.67
2023-04-07T07:26:24.353Z,8.00
2023-04-07T07:28:52.346Z,8.43
2023-04-07T07:31:20.495Z,8.03
2023-04-07T07:33:51.551Z,7.23
2023-04-07T07:36:19.673Z,7.73
2023-04-07T07:38:47.729Z,8.17
2023-04-07T07:41:15.990Z,6.80
2023-04-07T07:43:44.011Z,7.70
2023-04-07T07:46:12.045Z,7.63
2023-04-07T07:48:40.069Z,7.40
2023-04-07T07:51:09.998Z,8.10
2023-04-07T07:53:38.131Z,7.63
2023-04-07T07:56:06.193Z,7.90
2023-04-07T07:58:34.270Z,6.77
2023-04-07T08:01:02.384Z,7.20
2023-04-07T08:03:30.643Z,7.13
2023-04-07T08:05:58.929Z,8.10
2023-04-07T08:08:28.320Z,9.50
2023-04-07T08:10:56.458Z,7.60
2023-04-07T08:13:24.484Z,8.13
2023-04-07T08:15:52.556Z,8.40
2023-04-07T08:18:20.621Z,7.77
2023-04-07T08:20:48.630Z,7.70
2023-04-07T08:23:16.806Z,7.67
2023-04-07T08:25:46.210Z,7.23
2023-04-07T08:28:14.267Z,8.77
2023-04-07T08:30:42.331Z,8.67
2023-04-07T08:33:10.441Z,9.53
2023-04-07T08:35:38.479Z,7.40
2023-04-07T08:38:07.820Z,8.40
2023-04-07T08:40:36.012Z,8.20
2023-04-07T08:43:09.889Z,7.73
2023-04-07T08:45:42.004Z,8.50
2023-04-07T08:48:16.549Z,9.10
2023-04-07T08:50:46.165Z,7.80
2023-04-07T08:53:15.652Z,9.03
2023-04-07T08:55:43.784Z,7.97
2023-04-07T08:58:14.690Z,8.10
2023-04-07T09:00:49.150Z,8.63
2023-04-07T09:03:18.989Z,6.40
2023-04-07T09:05:47.436Z,8.40
2023-04-07T09:08:15.483Z,8.70
2023-04-07T09:10:43.703Z,9.23
2023-04-07T09:13:13.602Z,6.60
2023-04-07T09:15:42.039Z,6.53
2023-04-07T09:18:10.355Z,8.20
2023-04-07T09:20:58.023Z,8.13
2023-04-07T09:23:31.150Z,5.97
2023-04-07T09:26:01.519Z,6.20
2023-04-07T09:28:45.198Z,6.77
2023-04-07T09:31:13.305Z,6.00
2023-04-07T09:33:41.586Z,6.93
2023-04-07T09:36:10.629Z,6.60
2023-04-07T09:38:40.606Z,7.80
2023-04-07T09:41:10.623Z,7.80
2023-04-07T09:43:41.149Z,8.13
2023-04-07T09:46:12.586Z,8.30
2023-04-07T09:48:41.692Z,6.40
2023-04-07T09:51:12.042Z,6.63
2023-04-07T09:53:48.759Z,5.60
2023-04-07T09:56:19.520Z,5.50
2023-04-07T09:58:48.599Z,5.97
2023-04-07T10:01:18.866Z,8.20
2023-04-07T10:03:48.380Z,9.50
2023-04-07T10:06:17.048Z,6.17
2023-04-07T10:08:45.555Z,6.53
2023-04-07T10:11:13.713Z,7.70
2023-04-07T10:13:42.233Z,6.30
2023-04-07T10:16:10.466Z,8.93
2023-04-07T10:18:41.575Z,8.07
2023-04-07T10:21:15.092Z,8.10
2023-04-07T10:23:54.736Z,8.23
2023-04-07T10:26:27.533Z,9.53
2023-04-07T10:29:01.413Z,9.10
2023-04-07T10:31:30.013Z,9.00
2023-04-07T10:33:59.557Z,8.63
2023-04-07T10:36:28.945Z,7.70
2023-04-07T10:39:22.186Z,7.33
2023-04-07T10:41:51.793Z,8.23
2023-04-07T10:44:50.491Z,9.23
2023-04-07T10:47:18.655Z,8.40
2023-04-07T10:50:20.419Z,8.10
2023-04-07T10:52:49.757Z,8.50
2023-04-07T10:55:35.014Z,8.57
2023-04-07T10:58:33.985Z,7.27
2023-04-07T11:01:21.907Z,8.87
2023-04-07T11:03:59.184Z,9.30
2023-04-07T11:06:29.063Z,8.23
2023-04-07T11:08:57.320Z,9.00
2023-04-07T11:11:40.584Z,8.10
2023-04-07T11:14:09.185Z,8.70
2023-04-07T11:16:42.608Z,8.57
2023-04-07T11:19:11.195Z,8.70
2023-04-07T11:21:40.839Z,6.93
2023-04-07T11:24:09.388Z,6.87
2023-04-07T11:26:42.260Z,8.10
2023-04-07T11:29:11.986Z,7.30
2023-04-07T11:31:40.283Z,8.50
2023-04-07T11:34:09.020Z,9.37
2023-04-07T11:36:41.534Z,7.87
2023-04-07T11:39:21.420Z,6.93
2023-04-07T11:41:50.766Z,8.60
2023-04-07T11:44:19.133Z,9.70
2023-04-07T11:46:58.047Z,7.90
2023-04-07T11:49:28.105Z,7.83
2023-04-07T11:52:02.972Z,9.33
2023-04-07T11:54:41.620Z,5.73
2023-04-07T11:57:12.552Z,9.10
2023-04-07T11:59:41.754Z,8.43
2023-04-07T12:02:10.376Z,5.70
2023-04-07T12:04:40.749Z,7.57
2023-04-07T12:07:11.765Z,8.97
2023-04-07T12:09:41.013Z,9.03
2023-04-07T12:12:10.706Z,8.40
2023-04-07T12:14:39.517Z,9.70
2023-04-07T12:17:09.366Z,11.13
2023-04-07T12:19:39.451Z,9.90
2023-04-07T12:22:07.552Z,7.20
2023-04-07T12:24:37.018Z,7.93
2023-04-07T12:27:05.072Z,6.50
2023-04-07T12:29:33.279Z,8.50
2023-04-07T12:32:01.820Z,6.50
2023-04-07T12:34:30.057Z,8.63
2023-04-07T12:36:58.130Z,10.50
2023-04-07T12:39:26.285Z,9.87
2023-04-07T12:41:55.670Z,10.20
2023-04-07T12:44:23.852Z,10.60
2023-04-07T12:46:52.142Z,9.70
2023-04-07T12:49:20.147Z,9.27
2023-04-07T12:51:48.241Z,9.03
2023-04-07T12:54:16.600Z,9.17
2023-04-07T12:56:44.709Z,7.83
2023-04-07T12:59:14.227Z,10.80
2023-04-07T13:01:42.691Z,8.53
2023-04-07T13:04:11.100Z,9.67
2023-04-07T13:06:39.493Z,8.77
2023-04-07T13:09:07.599Z,6.53
2023-04-07T13:11:36.288Z,7.90
2023-04-07T13:14:04.446Z,8.53
2023-04-07T13:16:34.205Z,10.50
2023-04-07T13:19:02.368Z,10.40
2023-04-07T13:24:01.552Z,10.90
2023-04-07T13:26:29.876Z,8.60
2023-04-07T13:29:01.267Z,8.27
2023-04-07T13:31:30.408Z,10.33
2023-04-07T13:33:59.979Z,6.87
2023-04-07T13:36:28.434Z,9.10
2023-04-07T13:38:57.512Z,9.40
2023-04-07T13:41:26.494Z,11.37
2023-04-07T13:43:54.679Z,8.20
2023-04-07T13:46:27.805Z,8.00
2023-04-07T13:48:56.446Z,8.73
2023-04-07T13:51:25.954Z,9.07
2023-04-07T13:53:53.995Z,10.70
2023-04-07T13:56:22.605Z,9.47
2023-04-07T13:58:51.440Z,9.00
2023-04-07T14:01:19.585Z,10.03
2023-04-07T14:03:49.551Z,9.30
2023-04-07T14:06:18.243Z,7.40
2023-04-07T14:08:47.773Z,8.70
2023-04-07T14:11:18.769Z,8.67
2023-04-07T14:13:46.984Z,8.43
2023-04-07T14:16:15.668Z,6.20
2023-04-07T14:18:44.028Z,8.40
2023-04-07T14:21:12.196Z,8.97
2023-04-07T14:23:40.356Z,7.50
2023-04-07T14:26:12.720Z,7.20
2023-04-07T14:28:41.554Z,8.07
2023-04-07T14:31:14.564Z,6.33
2023-04-07T14:33:42.989Z,8.20
2023-04-07T14:36:11.092Z,7.87
2023-04-07T14:38:39.616Z,7.80
2023-04-07T14:41:09.950Z,10.70
2023-04-07T14:43:41.130Z,11.03
2023-04-07T14:46:09.342Z,9.60
2023-04-07T14:48:37.367Z,8.80
2023-04-07T14:51:11.063Z,9.50
2023-04-07T14:53:39.365Z,7.93
2023-04-07T14:56:08.457Z,13.80
2023-04-07T14:58:38.923Z,10.10
2023-04-07T15:01:08.661Z,9.57
2023-04-07T15:03:37.131Z,9.90
2023-04-07T15:06:08.932Z,7.57
2023-04-07T15:08:37.139Z,9.37
2023-04-07T15:11:06.651Z,10.00
2023-04-07T15:13:35.704Z,8.73
2023-04-07T15:16:15.764Z,7.47
2023-04-07T15:18:47.073Z,6.67
2023-04-07T15:21:16.104Z,7.73
2023-04-07T15:23:44.294Z,8.60
2023-04-07T15:26:12.366Z,8.50
2023-04-07T15:28:40.556Z,9.00
2023-04-07T15:31:09.862Z,9.90
2023-04-07T15:33:40.975Z,8.97
2023-04-07T15:36:09.819Z,7.17
2023-04-07T15:38:39.013Z,6.27
2023-04-07T15:41:07.360Z,6.50
2023-04-07T15:43:36.955Z,8.83
2023-04-07T15:46:05.287Z,7.87
2023-04-07T15:48:33.554Z,8.73
2023-04-07T15:51:03.282Z,9.50
2023-04-07T15:53:31.553Z,6.50
2023-04-07T15:55:59.603Z,7.10
2023-04-07T15:58:27.680Z,11.10
2023-04-07T16:00:55.934Z,7.83
2023-04-07T16:03:24.147Z,7.13
2023-04-07T16:05:52.375Z,6.53
2023-04-07T16:08:21.856Z,8.07
2023-04-07T16:10:49.978Z,6.97
2023-04-07T16:13:18.579Z,6.83
2023-04-07T16:15:46.635Z,8.90
2023-04-07T16:18:14.889Z,9.27
2023-04-07T16:20:43.115Z,9.30
2023-04-07T16:23:11.219Z,8.27
2023-04-07T16:25:40.742Z,6.60
2023-04-07T16:28:08.769Z,7.67
2023-04-07T16:30:37.095Z,7.00
2023-04-07T16:33:05.466Z,8.27
2023-04-07T16:35:34.072Z,7.87
2023-04-07T16:38:04.502Z,8.17
2023-04-07T16:40:32.979Z,7.60
2023-04-07T16:43:02.737Z,7.97
2023-04-07T16:45:31.109Z,7.13
2023-04-07T16:47:59.822Z,7.17
2023-04-07T16:50:27.928Z,7.90
2023-04-07T16:52:57.559Z,16.87
2023-04-07T16:55:25.655Z,10.03
2023-04-07T16:57:53.870Z,10.07
2023-04-07T17:00:24.005Z,9.23
2023-04-07T17:02:52.345Z,11.10
2023-04-07T17:05:20.772Z,8.87
2023-04-07T17:07:49.203Z,7.40
2023-04-07T17:10:17.391Z,16.63
2023-04-07T17:12:48.301Z,9.30
2023-04-07T17:15:16.802Z,8.50
2023-04-07T17:17:46.226Z,7.87
2023-04-07T17:20:17.436Z,7.50
2023-04-07T17:22:46.563Z,8.20
2023-04-07T17:25:15.152Z,8.47
2023-04-07T17:27:44.100Z,8.40
2023-04-07T17:30:13.180Z,7.70
2023-04-07T17:32:41.416Z,10.37
2023-04-07T17:35:12.066Z,9.87
2023-04-07T17:37:40.674Z,11.63
2023-04-07T17:40:10.028Z,12.00
2023-04-07T17:42:38.827Z,9.10
2023-04-07T17:45:08.702Z,8.70
2023-04-07T17:47:37.219Z,8.60
2023-04-07T17:50:06.257Z,9.30
2023-04-07T17:52:36.179Z,8.47
2023-04-07T17:55:04.318Z,8.80
2023-04-07T17:57:32.527Z,9.43
2023-04-07T18:00:00.643Z,9.20
2023-04-07T18:02:29.085Z,8.77
2023-04-07T18:05:00.972Z,9.13
2023-04-07T18:07:29.411Z,8.50
2023-04-07T18:09:58.991Z,8.90
2023-04-07T18:12:27.179Z,8.60
2023-04-07T18:14:55.325Z,8.03
2023-04-07T18:17:23.344Z,8.70
2023-04-07T18:19:51.487Z,9.27
2023-04-07T18:22:19.598Z,9.43
2023-04-07T18:24:47.742Z,10.10
2023-04-07T18:27:17.407Z,7.77
2023-04-07T18:29:45.657Z,10.30
2023-04-07T18:32:13.741Z,9.20
2023-04-07T18:34:41.740Z,9.50
2023-04-07T18:37:09.798Z,11.93
2023-04-07T18:39:38.007Z,10.03
2023-04-07T18:42:06.420Z,10.50
2023-04-07T18:44:35.936Z,10.40
2023-04-07T18:47:04.268Z,9.90
2023-04-07T18:49:32.325Z,9.70
2023-04-07T18:52:00.386Z,10.07
2023-04-07T18:54:28.600Z,9.67
2023-04-07T18:56:58.067Z,9.07
2023-04-07T18:59:26.538Z,9.20
2023-04-07T19:01:56.672Z,9.47
2023-04-07T19:04:25.950Z,8.47
2023-04-07T19:06:54.324Z,8.60
2023-04-07T19:09:22.560Z,9.93
2023-04-07T19:11:51.342Z,9.80
2023-04-07T19:14:19.461Z,9.80
2023-04-07T19:16:47.770Z,9.50
2023-04-07T19:19:17.458Z,9.43
2023-04-07T19:21:45.883Z,8.60
2023-04-07T19:24:13.973Z,8.70
2023-04-07T19:26:42.893Z,8.57
2023-04-07T19:29:12.517Z,8.80
2023-04-07T19:31:40.795Z,9.27
2023-04-07T19:34:08.939Z,9.50
2023-04-07T19:36:38.297Z,9.10
2023-04-07T19:39:06.412Z,10.00
2023-04-07T19:41:34.968Z,11.20
2023-04-07T19:44:03.145Z,8.63
2023-04-07T19:46:33.166Z,8.67
2023-04-07T19:49:01.294Z,9.47
2023-04-07T19:51:29.317Z,10.20
2023-04-07T19:53:58.845Z,9.80
2023-04-07T19:56:27.234Z,9.63
2023-04-07T19:58:55.373Z,9.50
2023-04-07T20:01:23.377Z,10.27
2023-04-07T20:03:52.101Z,9.80
2023-04-07T20:06:21.396Z,9.30
2023-04-07T20:08:49.732Z,10.10
2023-04-07T20:11:19.299Z,10.10
2023-04-07T20:13:49.393Z,9.83
2023-04-07T20:16:17.711Z,10.10
2023-04-07T20:18:46.202Z,10.13
2023-04-07T20:21:15.835Z,10.27
2023-04-07T20:23:44.646Z,10.67
2023-04-07T20:26:12.654Z,9.97
2023-04-07T20:28:43.123Z,10.13
2023-04-07T20:31:11.222Z,11.13
2023-04-07T20:33:39.440Z,10.50
2023-04-07T20:36:07.699Z,9.83
2023-04-07T20:38:35.775Z,9.70
2023-04-07T20:41:03.899Z,9.43
2023-04-07T20:43:31.975Z,9.43
2023-04-07T20:46:01.434Z,11.50
2023-04-07T20:48:29.595Z,11.00
2023-04-07T20:50:57.710Z,11.17
2023-04-07T20:53:25.859Z,12.17
2023-04-07T20:55:54.112Z,13.03
2023-04-07T20:58:22.160Z,12.90
2023-04-07T21:00:56.899Z,13.10
2023-04-07T21:03:27.530Z,13.17
2023-04-07T21:05:56.712Z,12.73
2023-04-07T21:08:25.380Z,12.47
2023-04-07T21:10:53.714Z,13.53
2023-04-07T21:13:22.413Z,12.50
2023-04-07T21:15:50.549Z,13.57
2023-04-07T21:18:19.374Z,12.33
2023-04-07T21:20:49.162Z,13.20
2023-04-07T21:23:17.317Z,13.53
2023-04-07T21:25:45.485Z,12.50
2023-04-07T21:28:16.264Z,12.60
2023-04-07T21:30:44.316Z,12.17
2023-04-07T21:33:13.545Z,12.43
2023-04-07T21:35:41.947Z,12.07
2023-04-07T21:38:11.309Z,13.53
2023-04-07T21:40:39.538Z,12.20
2023-04-07T21:43:07.578Z,13.43
2023-04-07T21:45:35.749Z,14.43
2023-04-07T21:48:04.216Z,12.00
2023-04-07T21:50:32.731Z,13.47
2023-04-07T21:53:00.730Z,13.50
2023-04-07T21:55:30.368Z,12.90
2023-04-07T21:57:58.554Z,12.97
2023-04-07T22:00:27.074Z,12.63
2023-04-07T22:02:55.612Z,12.17
2023-04-07T22:05:23.806Z,12.37
2023-04-07T22:07:51.898Z,12.10
2023-04-07T22:10:19.913Z,11.93
2023-04-07T22:12:49.519Z,13.30
2023-04-07T22:15:17.669Z,12.50
2023-04-07T22:17:45.900Z,12.57
2023-04-07T22:20:14.119Z,14.43
2023-04-07T22:22:43.085Z,13.10
2023-04-07T22:25:11.576Z,13.43
2023-04-07T22:27:39.604Z,12.77
2023-04-07T22:30:10.932Z,13.53
2023-04-07T22:32:39.281Z,13.60
2023-04-07T22:35:07.735Z,13.53
2023-04-07T22:37:35.831Z,15.90
2023-04-07T22:40:04.043Z,13.90
2023-04-07T22:42:32.106Z,15.90
2023-04-07T22:45:00.229Z,15.47
2023-04-07T22:47:29.643Z,15.00
2023-04-07T22:49:57.770Z,16.70
2023-04-07T22:52:25.835Z,15.70
2023-04-07T22:54:53.887Z,14.97
2023-04-07T22:57:21.965Z,15.23
2023-04-07T22:59:50.040Z,15.80
2023-04-07T23:02:18.295Z,15.07
2023-04-07T23:04:48.741Z,16.10
2023-04-07T23:07:17.115Z,14.80
2023-04-07T23:09:45.290Z,15.27
2023-04-07T23:12:13.330Z,16.00
2023-04-07T23:14:41.424Z,15.00
2023-04-07T23:17:09.552Z,15.40
2023-04-07T23:19:37.812Z,15.00
2023-04-07T23:22:07.230Z,14.23
2023-04-07T23:24:35.280Z,14.20
2023-04-07T23:27:03.457Z,14.77
2023-04-07T23:29:32.445Z,15.27
2023-04-07T23:32:00.961Z,14.43
2023-04-07T23:34:29.116Z,14.50
2023-04-07T23:36:57.248Z,15.17
2023-04-07T23:39:26.720Z,14.80
2023-04-07T23:41:54.768Z,14.30
2023-04-07T23:44:22.773Z,12.97
2023-04-07T23:46:50.830Z,15.00
2023-04-07T23:49:19.146Z,14.47
2023-04-07T23:51:47.350Z,13.50
2023-04-07T23:54:15.416Z,14.00
2023-04-07T23:56:44.804Z,13.50
2023-04-07T23:59:13.273Z,13.47
